sensor_id;sensor_type;location;lat;lon;timestamp;pressure;altitude;pressure_sealevel;temperature;humidity
16190;BME280;41754;51.498;7.540;2023-04-01T00:02:08;98157.19;;;10.30;77.07
16190;BME280;41754;51.498;7.540;2023-04-01T00:04:37;98164.03;;;10.39;77.11
16190;BME280;41754;51.498;7.540;2023-04-01T00:07:04;98155.44;;;10.21;77.26
16190;BME280;41754;51.498;7.540;2023-04-01T00:09:33;98156.88;;;10.15;78.10
16190;BME280;41754;51.498;7.540;2023-04-01T00:12:01;98163.06;;;10.12;78.91
16190;BME280;41754;51.498;7.540;2023-04-01T00:14:29;98158.16;;;10.02;78.64
16190;BME280;41754;51.498;7.540;2023-04-01T00:16:58;98162.34;;;10.15;78.34
16190;BME280;41754;51.498;7.540;2023-04-01T00:19:26;98161.75;;;10.06;78.57
16190;BME280;41754;51.498;7.540;2023-04-01T00:21:55;98160.31;;;10.12;79.13
16190;BME280;41754;51.498;7.540;2023-04-01T00:24:24;98167.22;;;9.87;80.26
16190;BME280;41754;51.498;7.540;2023-04-01T00:26:52;98169.84;;;9.99;79.02
16190;BME280;41754;51.498;7.540;2023-04-01T00:29:20;98162.59;;;10.26;79.37
16190;BME280;41754;51.498;7.540;2023-04-01T00:31:50;98165.47;;;9.79;79.97
16190;BME280;41754;51.498;7.540;2023-04-01T00:34:19;98156.69;;;10.08;79.81
16190;BME280;41754;51.498;7.540;2023-04-01T00:36:47;98153.84;;;10.20;78.70
16190;BME280;41754;51.498;7.540;2023-04-01T00:39:15;98154.38;;;10.10;79.38
16190;BME280;41754;51.498;7.540;2023-04-01T00:41:43;98158.63;;;10.23;78.85
16190;BME280;41754;51.498;7.540;2023-04-01T00:44:15;98160.53;;;10.04;79.44
16190;BME280;41754;51.498;7.540;2023-04-01T00:46:44;98165.34;;;10.26;79.47
16190;BME280;41754;51.498;7.540;2023-04-01T00:49:15;98147.91;;;10.38;78.65
16190;BME280;41754;51.498;7.540;2023-04-01T00:51:48;98166.50;;;9.90;79.88
16190;BME280;41754;51.498;7.540;2023-04-01T00:54:19;98155.88;;;10.23;80.14
16190;BME280;41754;51.498;7.540;2023-04-01T00:56:50;98161.56;;;9.80;80.20
16190;BME280;41754;51.498;7.540;2023-04-01T00:59:24;98153.84;;;10.20;80.41
16190;BME280;41754;51.498;7.540;2023-04-01T01:01:53;98146.09;;;10.26;79.65
16190;BME280;41754;51.498;7.540;2023-04-01T01:04:22;98151.25;;;10.47;79.43
16190;BME280;41754;51.498;7.540;2023-04-01T01:06:58;98146.31;;;10.37;79.78
16190;BME280;41754;51.498;7.540;2023-04-01T01:09:38;98158.13;;;10.37;78.25
16190;BME280;41754;51.498;7.540;2023-04-01T01:12:13;98145.47;;;10.33;79.00
16190;BME280;41754;51.498;7.540;2023-04-01T01:14:54;98131.34;;;10.34;79.13
16190;BME280;41754;51.498;7.540;2023-04-01T01:17:31;98141.81;;;10.09;78.95
16190;BME280;41754;51.498;7.540;2023-04-01T01:20:29;98148.03;;;10.06;80.33
16190;BME280;41754;51.498;7.540;2023-04-01T01:26:08;98133.63;;;10.29;79.75
16190;BME280;41754;51.498;7.540;2023-04-01T01:28:47;98132.41;;;9.91;80.15
16190;BME280;41754;51.498;7.540;2023-04-01T01:31:23;98141.06;;;10.12;79.81
16190;BME280;41754;51.498;7.540;2023-04-01T01:34:06;98129.78;;;9.98;79.97
16190;BME280;41754;51.498;7.540;2023-04-01T01:36:42;98137.75;;;10.03;81.42
16190;BME280;41754;51.498;7.540;2023-04-01T01:39:12;98134.91;;;10.00;80.74
16190;BME280;41754;51.498;7.540;2023-04-01T01:41:42;98133.09;;;10.23;80.12
16190;BME280;41754;51.498;7.540;2023-04-01T01:44:14;98134.69;;;10.24;79.52
16190;BME280;41754;51.498;7.540;2023-04-01T01:46:44;98141.06;;;10.12;81.16
16190;BME280;41754;51.498;7.540;2023-04-01T01:49:14;98135.41;;;10.21;79.85
16190;BME280;41754;51.498;7.540;2023-04-01T01:51:44;98127.09;;;10.37;79.30
16190;BME280;41754;51.498;7.540;2023-04-01T01:54:13;98120.38;;;10.34;79.06
16190;BME280;41754;51.498;7.540;2023-04-01T01:56:43;98134.00;;;10.11;78.92
16190;BME280;41754;51.498;7.540;2023-04-01T01:59:13;98126.03;;;10.06;80.09
16190;BME280;41754;51.498;7.540;2023-04-01T02:01:45;98128.00;;;10.06;79.86
16190;BME280;41754;51.498;7.540;2023-04-01T02:04:15;98129.47;;;10.19;80.69
16190;BME280;41754;51.498;7.540;2023-04-01T02:06:50;98130.28;;;10.19;79.75
16190;BME280;41754;51.498;7.540;2023-04-01T02:09:20;98131.97;;;10.08;80.35
16190;BME280;41754;51.498;7.540;2023-04-01T02:11:51;98133.19;;;9.91;80.64
16190;BME280;41754;51.498;7.540;2023-04-01T02:14:22;98131.78;;;10.17;80.24
16190;BME280;41754;51.498;7.540;2023-04-01T02:16:55;98140.03;;;10.01;80.97
16190;BME280;41754;51.498;7.540;2023-04-01T02:19:27;98147.50;;;10.01;80.92
16190;BME280;41754;51.498;7.540;2023-04-01T02:22:03;98143.38;;;10.10;80.77
16190;BME280;41754;51.498;7.540;2023-04-01T02:24:35;98137.34;;;10.20;79.79
16190;BME280;41754;51.498;7.540;2023-04-01T02:27:04;98133.34;;;10.18;79.72
16190;BME280;41754;51.498;7.540;2023-04-01T02:29:32;98126.31;;;10.01;79.99
16190;BME280;41754;51.498;7.540;2023-04-01T02:32:01;98123.13;;;9.99;80.72
16190;BME280;41754;51.498;7.540;2023-04-01T02:34:30;98136.72;;;9.92;81.39
16190;BME280;41754;51.498;7.540;2023-04-01T02:37:00;98129.38;;;10.15;79.87
16190;BME280;41754;51.498;7.540;2023-04-01T02:39:28;98135.00;;;10.03;80.28
16190;BME280;41754;51.498;7.540;2023-04-01T02:41:56;98128.69;;;10.18;79.00
16190;BME280;41754;51.498;7.540;2023-04-01T02:44:24;98136.72;;;9.92;79.53
16190;BME280;41754;51.498;7.540;2023-04-01T02:46:52;98130.81;;;10.09;79.54
16190;BME280;41754;51.498;7.540;2023-04-01T02:49:20;98128.69;;;10.18;79.44
16190;BME280;41754;51.498;7.540;2023-04-01T02:51:48;98132.53;;;9.98;78.97
16190;BME280;41754;51.498;7.540;2023-04-01T02:54:17;98124.72;;;10.00;79.42
16190;BME280;41754;51.498;7.540;2023-04-01T02:56:45;98119.16;;;9.97;78.80
16190;BME280;41754;51.498;7.540;2023-04-01T02:59:14;98112.63;;;10.40;77.17
16190;BME280;41754;51.498;7.540;2023-04-01T03:01:42;98117.22;;;10.16;77.08
16190;BME280;41754;51.498;7.540;2023-04-01T03:04:10;98118.97;;;10.05;78.68
16190;BME280;41754;51.498;7.540;2023-04-01T03:06:38;98126.66;;;10.00;78.63
16190;BME280;41754;51.498;7.540;2023-04-01T03:09:06;98128.59;;;9.80;79.28
16190;BME280;41754;51.498;7.540;2023-04-01T03:11:35;98131.78;;;9.82;80.10
16190;BME280;41754;51.498;7.540;2023-04-01T03:14:03;98128.25;;;10.01;78.59
16190;BME280;41754;51.498;7.540;2023-04-01T03:16:31;98121.28;;;9.68;79.10
16190;BME280;41754;51.498;7.540;2023-04-01T03:19:00;98131.44;;;9.83;79.35
16190;BME280;41754;51.498;7.540;2023-04-01T03:21:29;98131.94;;;9.89;78.83
16190;BME280;41754;51.498;7.540;2023-04-01T03:23:57;98133.00;;;9.65;79.70
16190;BME280;41754;51.498;7.540;2023-04-01T03:26:25;98136.50;;;10.01;80.10
16190;BME280;41754;51.498;7.540;2023-04-01T03:28:56;98146.03;;;9.87;80.20
16190;BME280;41754;51.498;7.540;2023-04-01T03:31:24;98140.50;;;9.68;80.54
16190;BME280;41754;51.498;7.540;2023-04-01T03:33:55;98133.69;;;9.97;79.58
16190;BME280;41754;51.498;7.540;2023-04-01T03:36:23;98129.91;;;9.86;80.76
16190;BME280;41754;51.498;7.540;2023-04-01T03:38:51;98134.97;;;9.84;79.77
16190;BME280;41754;51.498;7.540;2023-04-01T03:41:27;98137.00;;;9.87;80.05
16190;BME280;41754;51.498;7.540;2023-04-01T03:43:56;98130.50;;;9.60;81.49
16190;BME280;41754;51.498;7.540;2023-04-01T03:46:24;98137.06;;;9.55;80.58
16190;BME280;41754;51.498;7.540;2023-04-01T03:48:53;98141.84;;;9.93;80.74
16190;BME280;41754;51.498;7.540;2023-04-01T03:51:20;98141.31;;;9.88;80.37
16190;BME280;41754;51.498;7.540;2023-04-01T03:53:49;98138.50;;;9.84;79.70
16190;BME280;41754;51.498;7.540;2023-04-01T03:56:17;98145.78;;;9.77;80.15
16190;BME280;41754;51.498;7.540;2023-04-01T03:58:45;98141.00;;;10.09;79.97
16190;BME280;41754;51.498;7.540;2023-04-01T04:01:16;98142.69;;;9.78;80.23
16190;BME280;41754;51.498;7.540;2023-04-01T04:03:45;98149.66;;;9.41;81.78
16190;BME280;41754;51.498;7.540;2023-04-01T04:06:13;98153.47;;;9.87;81.39
16190;BME280;41754;51.498;7.540;2023-04-01T04:08:42;98152.00;;;9.74;81.65
16190;BME280;41754;51.498;7.540;2023-04-01T04:11:11;98160.38;;;9.97;81.20
16190;BME280;41754;51.498;7.540;2023-04-01T04:13:41;98163.53;;;9.63;81.70
16190;BME280;41754;51.498;7.540;2023-04-01T04:16:10;98169.00;;;9.63;81.80
16190;BME280;41754;51.498;7.540;2023-04-01T04:18:44;98166.13;;;9.56;82.41
16190;BME280;41754;51.498;7.540;2023-04-01T04:21:12;98171.59;;;9.56;82.99
16190;BME280;41754;51.498;7.540;2023-04-01T04:23:42;98168.09;;;9.91;82.57
16190;BME280;41754;51.498;7.540;2023-04-01T04:26:14;98168.56;;;10.12;81.14
16190;BME280;41754;51.498;7.540;2023-04-01T04:28:46;98177.50;;;9.74;82.51
16190;BME280;41754;51.498;7.540;2023-04-01T04:31:18;98184.69;;;9.63;83.05
16190;BME280;41754;51.498;7.540;2023-04-01T04:33:48;98179.97;;;9.95;81.98
16190;BME280;41754;51.498;7.540;2023-04-01T04:36:17;98179.16;;;9.94;81.91
16190;BME280;41754;51.498;7.540;2023-04-01T04:38:46;98187.19;;;9.68;83.49
16190;BME280;41754;51.498;7.540;2023-04-01T04:41:16;98174.28;;;9.88;82.33
16190;BME280;41754;51.498;7.540;2023-04-01T04:43:51;98181.38;;;9.89;81.87
16190;BME280;41754;51.498;7.540;2023-04-01T04:46:21;98182.38;;;9.81;82.55
16190;BME280;41754;51.498;7.540;2023-04-01T04:48:55;98176.66;;;10.05;82.16
16190;BME280;41754;51.498;7.540;2023-04-01T04:51:23;98180.59;;;10.23;81.34
16190;BME280;41754;51.498;7.540;2023-04-01T04:53:51;98179.97;;;10.30;80.18
16190;BME280;41754;51.498;7.540;2023-04-01T04:56:28;98183.94;;;9.98;82.12
16190;BME280;41754;51.498;7.540;2023-04-01T04:59:05;98191.25;;;10.09;80.55
16190;BME280;41754;51.498;7.540;2023-04-01T05:01:42;98187.78;;;10.12;80.52
16190;BME280;41754;51.498;7.540;2023-04-01T05:04:11;98185.47;;;10.14;80.55
16190;BME280;41754;51.498;7.540;2023-04-01T05:06:39;98185.66;;;10.21;80.32
16190;BME280;41754;51.498;7.540;2023-04-01T05:09:07;98187.56;;;10.37;79.12
16190;BME280;41754;51.498;7.540;2023-04-01T05:11:35;98189.50;;;10.36;79.10
16190;BME280;41754;51.498;7.540;2023-04-01T05:14:03;98188.16;;;10.46;79.10
16190;BME280;41754;51.498;7.540;2023-04-01T05:16:32;98186.69;;;10.33;79.48
16190;BME280;41754;51.498;7.540;2023-04-01T05:19:00;98186.75;;;10.01;80.31
16190;BME280;41754;51.498;7.540;2023-04-01T05:21:29;98188.72;;;10.36;79.55
16190;BME280;41754;51.498;7.540;2023-04-01T05:23:57;98187.44;;;10.14;79.75
16190;BME280;41754;51.498;7.540;2023-04-01T05:26:26;98195.34;;;10.15;79.63
16190;BME280;41754;51.498;7.540;2023-04-01T05:28:54;98202.53;;;10.20;79.69
16190;BME280;41754;51.498;7.540;2023-04-01T05:31:22;98194.50;;;10.31;79.95
16190;BME280;41754;51.498;7.540;2023-04-01T05:33:51;98200.88;;;10.35;79.89
16190;BME280;41754;51.498;7.540;2023-04-01T05:36:20;98204.28;;;10.28;79.87
16190;BME280;41754;51.498;7.540;2023-04-01T05:38:49;98198.00;;;10.28;79.79
16190;BME280;41754;51.498;7.540;2023-04-01T05:41:18;98210.44;;;10.60;79.98
16190;BME280;41754;51.498;7.540;2023-04-01T05:43:46;98204.31;;;10.67;78.43
16190;BME280;41754;51.498;7.540;2023-04-01T05:46:33;98209.06;;;10.70;78.88
16190;BME280;41754;51.498;7.540;2023-04-01T05:49:16;98204.88;;;10.57;78.50
16190;BME280;41754;51.498;7.540;2023-04-01T05:51:44;98211.91;;;10.54;79.32
16190;BME280;41754;51.498;7.540;2023-04-01T05:54:14;98204.66;;;10.46;80.24
16190;BME280;41754;51.498;7.540;2023-04-01T05:56:43;98207.19;;;10.55;79.83
16190;BME280;41754;51.498;7.540;2023-04-01T05:59:14;98210.88;;;10.43;79.46
16190;BME280;41754;51.498;7.540;2023-04-01T06:01:42;98213.34;;;10.67;79.40
16190;BME280;41754;51.498;7.540;2023-04-01T06:04:13;98207.59;;;10.76;78.97
16190;BME280;41754;51.498;7.540;2023-04-01T06:06:43;98211.47;;;10.71;78.80
16190;BME280;41754;51.498;7.540;2023-04-01T06:09:15;98210.88;;;10.81;79.29
16190;BME280;41754;51.498;7.540;2023-04-01T06:15:03;98218.47;;;10.49;80.17
16190;BME280;41754;51.498;7.540;2023-04-01T06:17:47;98224.63;;;10.62;78.73
16190;BME280;41754;51.498;7.540;2023-04-01T06:20:24;98228.53;;;10.61;79.18
16190;BME280;41754;51.498;7.540;2023-04-01T06:23:13;98233.75;;;10.66;78.43
16190;BME280;41754;51.498;7.540;2023-04-01T06:25:57;98236.06;;;10.84;79.05
16190;BME280;41754;51.498;7.540;2023-04-01T06:28:55;98234.31;;;10.75;78.77
16190;BME280;41754;51.498;7.540;2023-04-01T06:31:47;98225.28;;;10.56;79.11
16190;BME280;41754;51.498;7.540;2023-04-01T06:34:37;98230.78;;;10.94;78.20
16190;BME280;41754;51.498;7.540;2023-04-01T06:37:32;98238.66;;;10.76;78.50
16190;BME280;41754;51.498;7.540;2023-04-01T06:40:21;98238.66;;;10.96;78.60
16190;BME280;41754;51.498;7.540;2023-04-01T06:43:05;98238.97;;;10.71;78.48
16190;BME280;41754;51.498;7.540;2023-04-01T06:45:59;98242.78;;;11.05;78.43
16190;BME280;41754;51.498;7.540;2023-04-01T06:49:21;98244.38;;;11.06;77.66
16190;BME280;41754;51.498;7.540;2023-04-01T06:52:18;98241.09;;;11.20;77.62
16190;BME280;41754;51.498;7.540;2023-04-01T06:55:29;98250.47;;;10.96;78.45
16190;BME280;41754;51.498;7.540;2023-04-01T06:58:30;98242.19;;;11.16;77.91
16190;BME280;41754;51.498;7.540;2023-04-01T07:01:04;98249.38;;;10.81;78.63
16190;BME280;41754;51.498;7.540;2023-04-01T07:03:37;98251.03;;;11.05;78.74
16190;BME280;41754;51.498;7.540;2023-04-01T07:06:10;98253.44;;;11.07;78.45
16190;BME280;41754;51.498;7.540;2023-04-01T07:08:51;98245.44;;;11.21;77.88
16190;BME280;41754;51.498;7.540;2023-04-01T07:11:24;98247.22;;;10.91;77.91
16190;BME280;41754;51.498;7.540;2023-04-01T07:14:17;98256.19;;;10.88;78.74
16190;BME280;41754;51.498;7.540;2023-04-01T07:16:49;98252.75;;;11.14;77.76
16190;BME280;41754;51.498;7.540;2023-04-01T07:19:22;98252.56;;;10.84;77.60
16190;BME280;41754;51.498;7.540;2023-04-01T07:22:04;98261.75;;;11.10;78.00
16190;BME280;41754;51.498;7.540;2023-04-01T07:24:53;98265.59;;;11.06;78.94
16190;BME280;41754;51.498;7.540;2023-04-01T07:27:23;98264.09;;;11.51;77.48
16190;BME280;41754;51.498;7.540;2023-04-01T07:29:52;98266.97;;;11.16;77.49
16190;BME280;41754;51.498;7.540;2023-04-01T07:32:32;98269.84;;;11.23;77.01
16190;BME280;41754;51.498;7.540;2023-04-01T07:35:15;98266.72;;;11.24;78.40
16190;BME280;41754;51.498;7.540;2023-04-01T07:37:56;98270.28;;;11.44;78.14
16190;BME280;41754;51.498;7.540;2023-04-01T07:40:31;98275.44;;;10.88;78.08
16190;BME280;41754;51.498;7.540;2023-04-01T07:43:16;98273.03;;;11.25;78.05
16190;BME280;41754;51.498;7.540;2023-04-01T07:46:12;98286.16;;;10.73;79.36
16190;BME280;41754;51.498;7.540;2023-04-01T07:48:50;98300.38;;;11.14;78.97
16190;BME280;41754;51.498;7.540;2023-04-01T07:51:24;98279.16;;;11.37;77.88
16190;BME280;41754;51.498;7.540;2023-04-01T07:54:01;98285.56;;;11.42;77.05
16190;BME280;41754;51.498;7.540;2023-04-01T07:56:36;98282.81;;;11.42;77.58
16190;BME280;41754;51.498;7.540;2023-04-01T07:59:16;98278.69;;;11.32;76.61
16190;BME280;41754;51.498;7.540;2023-04-01T08:02:05;98285.03;;;11.36;77.06
16190;BME280;41754;51.498;7.540;2023-04-01T08:04:42;98284.03;;;11.25;77.32
16190;BME280;41754;51.498;7.540;2023-04-01T08:07:17;98287.31;;;11.30;77.31
16190;BME280;41754;51.498;7.540;2023-04-01T08:10:10;98297.97;;;11.13;78.43
16190;BME280;41754;51.498;7.540;2023-04-01T08:13:17;98300.00;;;11.77;76.90
16190;BME280;41754;51.498;7.540;2023-04-01T08:16:31;98300.59;;;11.67;76.62
16190;BME280;41754;51.498;7.540;2023-04-01T08:19:13;98314.56;;;11.16;76.88
16190;BME280;41754;51.498;7.540;2023-04-01T08:21:47;98299.88;;;11.70;76.80
16190;BME280;41754;51.498;7.540;2023-04-01T08:24:25;98311.63;;;11.67;77.34
16190;BME280;41754;51.498;7.540;2023-04-01T08:27:16;98312.03;;;11.69;77.55
16190;BME280;41754;51.498;7.540;2023-04-01T08:29:50;98306.88;;;11.45;78.15
16190;BME280;41754;51.498;7.540;2023-04-01T08:32:23;98323.81;;;11.08;77.67
16190;BME280;41754;51.498;7.540;2023-04-01T08:35:08;98324.69;;;11.12;77.50
16190;BME280;41754;51.498;7.540;2023-04-01T08:37:41;98331.72;;;11.48;76.71
16190;BME280;41754;51.498;7.540;2023-04-01T08:40:29;98322.91;;;11.62;76.07
16190;BME280;41754;51.498;7.540;2023-04-01T08:43:08;98326.81;;;11.80;75.48
16190;BME280;41754;51.498;7.540;2023-04-01T08:45:52;98321.16;;;11.73;75.59
16190;BME280;41754;51.498;7.540;2023-04-01T08:48:42;98326.91;;;11.87;75.36
16190;BME280;41754;51.498;7.540;2023-04-01T08:54:27;98338.31;;;11.24;77.04
16190;BME280;41754;51.498;7.540;2023-04-01T08:57:07;98345.56;;;10.94;78.84
16190;BME280;41754;51.498;7.540;2023-04-01T09:00:10;98344.75;;;11.32;77.77
16190;BME280;41754;51.498;7.540;2023-04-01T09:03:37;98347.06;;;11.68;76.75
16190;BME280;41754;51.498;7.540;2023-04-01T09:06:32;98358.81;;;11.27;77.07
16190;BME280;41754;51.498;7.540;2023-04-01T09:09:35;98364.50;;;10.99;79.58
16190;BME280;41754;51.498;7.540;2023-04-01T09:12:29;98351.91;;;10.98;79.19
16190;BME280;41754;51.498;7.540;2023-04-01T09:15:13;98361.13;;;11.25;79.01
16190;BME280;41754;51.498;7.540;2023-04-01T09:18:15;98362.78;;;10.91;79.88
16190;BME280;41754;51.498;7.540;2023-04-01T09:27:05;98377.16;;;10.84;78.99
16190;BME280;41754;51.498;7.540;2023-04-01T09:30:17;98371.22;;;11.17;79.44
16190;BME280;41754;51.498;7.540;2023-04-01T09:33:04;98380.75;;;11.04;78.75
16190;BME280;41754;51.498;7.540;2023-04-01T09:35:39;98371.28;;;11.21;78.74
16190;BME280;41754;51.498;7.540;2023-04-01T09:38:21;98376.25;;;11.73;77.69
16190;BME280;41754;51.498;7.540;2023-04-01T09:40:56;98385.56;;;11.65;77.14
16190;BME280;41754;51.498;7.540;2023-04-01T09:44:01;98386.00;;;11.48;76.89
16190;BME280;41754;51.498;7.540;2023-04-01T09:46:53;98387.44;;;11.42;78.59
16190;BME280;41754;51.498;7.540;2023-04-01T09:49:55;98388.59;;;11.60;78.10
16190;BME280;41754;51.498;7.540;2023-04-01T09:52:35;98388.81;;;11.71;77.44
16190;BME280;41754;51.498;7.540;2023-04-01T09:55:47;98399.63;;;11.60;76.91
16190;BME280;41754;51.498;7.540;2023-04-01T09:58:39;98398.88;;;11.44;77.18
16190;BME280;41754;51.498;7.540;2023-04-01T10:02:08;98408.28;;;11.23;78.37
16190;BME280;41754;51.498;7.540;2023-04-01T10:11:09;98426.66;;;11.00;80.96
16190;BME280;41754;51.498;7.540;2023-04-01T10:14:10;98420.69;;;10.63;82.19
16190;BME280;41754;51.498;7.540;2023-04-01T10:17:08;98422.94;;;11.27;81.42
16190;BME280;41754;51.498;7.540;2023-04-01T10:19:54;98426.78;;;11.42;80.46
16190;BME280;41754;51.498;7.540;2023-04-01T10:25:44;98434.22;;;11.22;81.73
16190;BME280;41754;51.498;7.540;2023-04-01T10:38:04;98431.22;;;12.50;76.03
16190;BME280;41754;51.498;7.540;2023-04-01T10:40:48;98434.03;;;12.31;75.02
16190;BME280;41754;51.498;7.540;2023-04-01T10:47:01;98436.66;;;11.82;78.76
16190;BME280;41754;51.498;7.540;2023-04-01T10:49:47;98442.88;;;11.98;78.87
16190;BME280;41754;51.498;7.540;2023-04-01T10:52:52;98436.97;;;11.77;77.07
16190;BME280;41754;51.498;7.540;2023-04-01T10:59:45;98441.25;;;12.39;76.78
16190;BME280;41754;51.498;7.540;2023-04-01T11:07:04;98443.56;;;12.37;76.30
16190;BME280;41754;51.498;7.540;2023-04-01T11:10:06;98447.56;;;12.17;75.02
16190;BME280;41754;51.498;7.540;2023-04-01T11:13:03;98437.69;;;12.62;75.32
16190;BME280;41754;51.498;7.540;2023-04-01T11:15:45;98449.09;;;12.37;74.90
16190;BME280;41754;51.498;7.540;2023-04-01T11:22:01;98457.53;;;12.25;75.27
16190;BME280;41754;51.498;7.540;2023-04-01T11:25:13;98456.47;;;12.52;75.60
16190;BME280;41754;51.498;7.540;2023-04-01T11:28:35;98460.50;;;11.74;75.38
16190;BME280;41754;51.498;7.540;2023-04-01T11:34:14;98468.94;;;11.81;76.74
16190;BME280;41754;51.498;7.540;2023-04-01T11:36:52;98472.13;;;12.03;76.03
16190;BME280;41754;51.498;7.540;2023-04-01T11:39:34;98473.44;;;12.32;76.21
16190;BME280;41754;51.498;7.540;2023-04-01T11:42:42;98473.00;;;12.52;75.32
16190;BME280;41754;51.498;7.540;2023-04-01T11:45:35;98477.63;;;12.03;74.49
16190;BME280;41754;51.498;7.540;2023-04-01T11:51:39;98486.41;;;11.69;78.04
16190;BME280;41754;51.498;7.540;2023-04-01T11:54:24;98498.75;;;11.40;79.85
16190;BME280;41754;51.498;7.540;2023-04-01T11:57:07;98509.19;;;11.66;83.08
16190;BME280;41754;51.498;7.540;2023-04-01T12:03:14;98506.91;;;12.11;78.65
16190;BME280;41754;51.498;7.540;2023-04-01T12:05:47;98509.84;;;12.41;77.55
16190;BME280;41754;51.498;7.540;2023-04-01T12:08:28;98509.06;;;12.21;77.00
16190;BME280;41754;51.498;7.540;2023-04-01T12:11:03;98524.00;;;11.62;79.84
16190;BME280;41754;51.498;7.540;2023-04-01T12:13:42;98511.56;;;12.07;78.04
16190;BME280;41754;51.498;7.540;2023-04-01T12:16:25;98524.16;;;11.50;79.74
16190;BME280;41754;51.498;7.540;2023-04-01T12:19:03;98518.31;;;11.90;79.51
16190;BME280;41754;51.498;7.540;2023-04-01T12:21:38;98523.75;;;11.86;78.16
16190;BME280;41754;51.498;7.540;2023-04-01T12:24:38;98523.13;;;12.35;75.84
16190;BME280;41754;51.498;7.540;2023-04-01T12:27:27;98526.94;;;12.27;76.08
16190;BME280;41754;51.498;7.540;2023-04-01T12:30:13;98524.44;;;12.22;76.17
16190;BME280;41754;51.498;7.540;2023-04-01T12:32:47;98530.38;;;12.43;77.97
16190;BME280;41754;51.498;7.540;2023-04-01T12:35:23;98532.63;;;12.80;76.58
16190;BME280;41754;51.498;7.540;2023-04-01T12:38:02;98533.56;;;12.45;75.92
16190;BME280;41754;51.498;7.540;2023-04-01T12:40:47;98541.66;;;12.15;75.14
16190;BME280;41754;51.498;7.540;2023-04-01T12:43:51;98544.03;;;13.01;76.14
16190;BME280;41754;51.498;7.540;2023-04-01T12:46:28;98544.81;;;12.37;76.21
16190;BME280;41754;51.498;7.540;2023-04-01T12:49:10;98547.78;;;12.47;76.36
16190;BME280;41754;51.498;7.540;2023-04-01T12:51:53;98553.28;;;12.47;75.65
16190;BME280;41754;51.498;7.540;2023-04-01T12:54:48;98549.25;;;12.41;75.54
16190;BME280;41754;51.498;7.540;2023-04-01T12:57:34;98552.19;;;12.29;76.24
16190;BME280;41754;51.498;7.540;2023-04-01T13:00:34;98556.09;;;12.28;77.51
16190;BME280;41754;51.498;7.540;2023-04-01T13:03:32;98563.91;;;11.87;79.32
16190;BME280;41754;51.498;7.540;2023-04-01T13:06:20;98567.53;;;12.49;78.50
16190;BME280;41754;51.498;7.540;2023-04-01T13:09:00;98561.88;;;12.23;77.99
16190;BME280;41754;51.498;7.540;2023-04-01T13:11:39;98572.56;;;12.63;77.29
16190;BME280;41754;51.498;7.540;2023-04-01T13:14:33;98576.75;;;12.38;76.45
16190;BME280;41754;51.498;7.540;2023-04-01T13:17:11;98581.88;;;12.78;76.52
16190;BME280;41754;51.498;7.540;2023-04-01T13:19:46;98584.31;;;12.60;75.73
16190;BME280;41754;51.498;7.540;2023-04-01T13:22:41;98588.38;;;12.66;76.25
16190;BME280;41754;51.498;7.540;2023-04-01T13:25:22;98589.72;;;12.99;75.84
16190;BME280;41754;51.498;7.540;2023-04-01T13:27:58;98585.19;;;12.64;75.53
16190;BME280;41754;51.498;7.540;2023-04-01T13:30:36;98590.25;;;12.62;77.93
16190;BME280;41754;51.498;7.540;2023-04-01T13:33:17;98597.31;;;12.02;78.51
16190;BME280;41754;51.498;7.540;2023-04-01T13:36:01;98602.81;;;12.21;80.08
16190;BME280;41754;51.498;7.540;2023-04-01T13:38:48;98603.13;;;12.16;79.02
16190;BME280;41754;51.498;7.540;2023-04-01T13:41:38;98607.63;;;12.05;77.78
16190;BME280;41754;51.498;7.540;2023-04-01T13:44:13;98607.16;;;11.83;79.37
16190;BME280;41754;51.498;7.540;2023-04-01T13:47:09;98619.53;;;11.74;82.78
16190;BME280;41754;51.498;7.540;2023-04-01T13:49:59;98604.03;;;11.85;80.37
16190;BME280;41754;51.498;7.540;2023-04-01T13:53:02;98618.94;;;11.49;80.95
16190;BME280;41754;51.498;7.540;2023-04-01T13:55:58;98627.44;;;11.75;81.42
16190;BME280;41754;51.498;7.540;2023-04-01T13:58:57;98632.91;;;11.56;80.72
16190;BME280;41754;51.498;7.540;2023-04-01T14:01:37;98633.16;;;11.51;81.66
16190;BME280;41754;51.498;7.540;2023-04-01T14:04:30;98637.25;;;11.57;81.03
16190;BME280;41754;51.498;7.540;2023-04-01T14:07:10;98644.63;;;11.53;81.38
16190;BME280;41754;51.498;7.540;2023-04-01T14:12:40;98647.94;;;11.93;80.88
16190;BME280;41754;51.498;7.540;2023-04-01T14:15:32;98643.28;;;11.47;80.91
16190;BME280;41754;51.498;7.540;2023-04-01T14:21:22;98655.63;;;11.68;81.46
16190;BME280;41754;51.498;7.540;2023-04-01T14:24:08;98653.38;;;12.09;79.77
16190;BME280;41754;51.498;7.540;2023-04-01T14:29:53;98664.50;;;11.78;81.21
16190;BME280;41754;51.498;7.540;2023-04-01T14:32:33;98669.00;;;12.02;79.95
16190;BME280;41754;51.498;7.540;2023-04-01T14:35:19;98662.00;;;11.88;79.65
16190;BME280;41754;51.498;7.540;2023-04-01T14:38:24;98672.31;;;12.11;77.47
16190;BME280;41754;51.498;7.540;2023-04-01T14:41:02;98665.06;;;12.03;79.27
16190;BME280;41754;51.498;7.540;2023-04-01T14:50:06;98678.91;;;11.71;79.37
16190;BME280;41754;51.498;7.540;2023-04-01T14:52:39;98681.41;;;11.60;80.11
16190;BME280;41754;51.498;7.540;2023-04-01T14:55:21;98681.31;;;11.57;80.83
16190;BME280;41754;51.498;7.540;2023-04-01T14:58:07;98684.63;;;11.97;80.05
16190;BME280;41754;51.498;7.540;2023-04-01T15:00:48;98685.47;;;11.82;79.71
16190;BME280;41754;51.498;7.540;2023-04-01T15:03:22;98691.00;;;11.66;80.99
16190;BME280;41754;51.498;7.540;2023-04-01T15:05:56;98693.31;;;11.49;80.38
16190;BME280;41754;51.498;7.540;2023-04-01T15:08:29;98697.31;;;11.67;80.98
16190;BME280;41754;51.498;7.540;2023-04-01T15:11:23;98702.81;;;11.83;80.64
16190;BME280;41754;51.498;7.540;2023-04-01T15:16:49;98709.84;;;11.64;81.18
16190;BME280;41754;51.498;7.540;2023-04-01T15:19:31;98708.88;;;11.57;80.48
16190;BME280;41754;51.498;7.540;2023-04-01T15:25:13;98724.44;;;11.65;81.59
16190;BME280;41754;51.498;7.540;2023-04-01T15:27:46;98720.78;;;11.61;80.91